createdAt,value
2019-03-21T00:01:30.149Z,85.80
2019-03-21T00:03:53.726Z,85.90
2019-03-21T00:06:23.396Z,86.10
2019-03-21T00:08:55.111Z,86.60
2019-03-21T00:11:56.065Z,86.70
2019-03-21T00:14:37.084Z,86.90
2019-03-21T00:17:05.101Z,87.10
2019-03-21T00:19:34.316Z,87.00
2019-03-21T00:21:59.915Z,87.10
2019-03-21T00:24:21.240Z,86.80
2019-03-21T00:26:48.790Z,86.80
2019-03-21T00:29:15.486Z,86.80
2019-03-21T00:31:51.393Z,86.90
2019-03-21T00:34:14.307Z,87.10
2019-03-21T00:36:39.195Z,87.50
2019-03-21T00:38:59.765Z,87.50
2019-03-21T00:41:20.387Z,87.70
2019-03-21T00:43:41.088Z,88.10
2019-03-21T00:46:01.680Z,88.20
2019-03-21T00:48:22.314Z,88.00
2019-03-21T00:50:42.899Z,87.90
2019-03-21T00:53:03.658Z,87.70
2019-03-21T00:55:26.706Z,87.70
2019-03-21T00:57:46.621Z,87.90
2019-03-21T01:00:13.552Z,88.10
2019-03-21T01:02:34.169Z,88.10
2019-03-21T01:04:54.697Z,88.20
2019-03-21T01:07:15.175Z,88.40
2019-03-21T01:09:35.866Z,88.30
2019-03-21T01:11:56.494Z,88.30
2019-03-21T01:14:29.081Z,88.30
2019-03-21T01:16:39.124Z,88.20
2019-03-21T01:18:59.736Z,88.50
2019-03-21T01:21:21.717Z,88.90
2019-03-21T01:23:42.251Z,88.80
2019-03-21T01:26:05.870Z,88.60
2019-03-21T01:28:26.393Z,88.70
2019-03-21T01:30:46.933Z,88.90
2019-03-21T01:33:08.507Z,89.80
2019-03-21T01:35:30.069Z,89.70
2019-03-21T01:37:50.781Z,89.40
2019-03-21T01:40:17.633Z,89.40
2019-03-21T01:42:38.128Z,89.00
2019-03-21T01:44:58.585Z,89.00
2019-03-21T01:47:19.225Z,89.60
2019-03-21T01:49:39.748Z,90.00
2019-03-21T01:52:00.336Z,90.00
2019-03-21T01:54:20.910Z,90.00
2019-03-21T01:56:41.528Z,89.90
2019-03-21T01:59:02.306Z,90.10
2019-03-21T02:01:22.923Z,90.20
2019-03-21T02:03:43.440Z,90.20
2019-03-21T02:06:15.988Z,90.20
2019-03-21T02:08:57.210Z,90.50
2019-03-21T02:11:17.769Z,90.20
2019-03-21T02:13:38.305Z,90.60
2019-03-21T02:15:59.290Z,90.70
2019-03-21T02:18:20.980Z,90.70
2019-03-21T02:20:41.602Z,90.80
2019-03-21T02:23:02.134Z,90.80
2019-03-21T02:25:27.520Z,90.60
2019-03-21T02:27:48.365Z,90.50
2019-03-21T02:30:17.814Z,90.50
2019-03-21T02:32:38.444Z,90.60
2019-03-21T02:34:59.040Z,90.50
2019-03-21T02:37:20.594Z,90.60
2019-03-21T02:39:41.169Z,90.60
2019-03-21T02:42:01.865Z,90.60
2019-03-21T02:44:22.403Z,90.60
2019-03-21T02:46:42.937Z,90.70
2019-03-21T02:49:04.668Z,90.70
2019-03-21T02:51:26.293Z,90.80
2019-03-21T02:53:46.827Z,90.90
2019-03-21T02:56:13.370Z,90.90
2019-03-21T02:58:33.911Z,90.80
2019-03-21T03:00:54.535Z,90.90
2019-03-21T03:03:15.165Z,90.80
2019-03-21T03:05:36.347Z,91.00
2019-03-21T03:07:57.140Z,90.90
2019-03-21T03:10:29.664Z,90.80
2019-03-21T03:12:50.058Z,91.00
2019-03-21T03:15:23.206Z,91.00
2019-03-21T03:17:42.029Z,90.90
2019-03-21T03:20:03.039Z,91.20
2019-03-21T03:22:23.586Z,91.20
2019-03-21T03:24:44.203Z,91.10
2019-03-21T03:27:05.126Z,91.00
2019-03-21T03:29:25.633Z,91.00
2019-03-21T03:31:46.334Z,91.40
2019-03-21T03:34:06.895Z,91.70
2019-03-21T03:36:30.455Z,91.50
2019-03-21T03:38:51.063Z,91.30
2019-03-21T03:41:14.251Z,91.30
2019-03-21T03:43:34.856Z,91.20
2019-03-21T03:45:55.474Z,91.60
2019-03-21T03:48:16.159Z,91.80
2019-03-21T03:50:38.440Z,91.90
2019-03-21T03:52:59.651Z,91.80
2019-03-21T03:55:20.988Z,91.40
2019-03-21T03:57:42.738Z,91.40
2019-03-21T04:00:05.326Z,91.50
2019-03-21T04:02:25.681Z,91.50
2019-03-21T04:04:46.238Z,91.50
2019-03-21T04:07:07.016Z,91.50
2019-03-21T04:09:27.761Z,92.20
2019-03-21T04:11:56.105Z,91.80
2019-03-21T04:14:16.578Z,91.70
2019-03-21T04:16:37.207Z,91.80
2019-03-21T04:18:58.696Z,91.60
2019-03-21T04:21:20.866Z,91.60
2019-03-21T04:23:43.015Z,91.70
2019-03-21T04:26:09.274Z,91.80
2019-03-21T04:28:29.904Z,91.80
2019-03-21T04:30:50.464Z,91.80
2019-03-21T04:33:32.332Z,91.80
2019-03-21T04:35:44.834Z,91.80
2019-03-21T04:38:05.462Z,91.80
2019-03-21T04:40:26.163Z,92.20
2019-03-21T04:42:46.979Z,91.90
2019-03-21T04:45:10.902Z,92.00
2019-03-21T04:47:32.465Z,91.80
2019-03-21T04:49:53.027Z,91.90
2019-03-21T04:52:16.635Z,92.60
2019-03-21T04:54:37.095Z,92.00
2019-03-21T04:56:57.751Z,91.90
2019-03-21T04:59:18.309Z,92.00
2019-03-21T05:01:38.855Z,92.10
2019-03-21T05:03:59.436Z,92.20
2019-03-21T05:06:21.139Z,92.20
2019-03-21T05:08:41.703Z,92.00
2019-03-21T05:11:02.267Z,92.00
2019-03-21T05:13:22.827Z,92.00
2019-03-21T05:15:46.596Z,92.10
2019-03-21T05:18:10.134Z,92.20
2019-03-21T05:20:31.091Z,92.10
2019-03-21T05:22:51.569Z,92.10
2019-03-21T05:25:12.619Z,92.00
2019-03-21T05:27:41.127Z,92.00
2019-03-21T05:30:02.106Z,92.00
2019-03-21T05:32:22.750Z,92.00
2019-03-21T05:34:43.286Z,91.90
2019-03-21T05:37:04.111Z,91.90
2019-03-21T05:39:24.647Z,92.10
2019-03-21T05:41:46.449Z,91.80
2019-03-21T05:44:32.075Z,91.70
2019-03-21T05:46:52.616Z,91.80
2019-03-21T05:49:13.170Z,91.90
2019-03-21T05:51:53.065Z,91.80
2019-03-21T05:54:13.739Z,91.50
2019-03-21T05:56:34.317Z,91.40
2019-03-21T05:58:54.814Z,91.30
2019-03-21T06:01:15.305Z,91.20
2019-03-21T06:03:39.053Z,91.10
2019-03-21T06:06:11.698Z,90.90
2019-03-21T06:08:37.870Z,90.70
2019-03-21T06:10:58.422Z,90.60
2019-03-21T06:13:19.080Z,90.60
2019-03-21T06:15:41.381Z,90.70
2019-03-21T06:18:16.665Z,90.90
2019-03-21T06:20:42.944Z,90.20
2019-03-21T06:23:33.718Z,90.00
2019-03-21T06:25:57.337Z,89.20
2019-03-21T06:28:17.980Z,87.30
2019-03-21T06:30:39.542Z,84.80
2019-03-21T06:33:00.057Z,82.80
2019-03-21T06:35:22.167Z,80.70
2019-03-21T06:37:42.678Z,78.20
2019-03-21T06:40:03.915Z,76.30
2019-03-21T06:42:24.641Z,73.80
2019-03-21T06:44:45.166Z,68.00
2019-03-21T06:47:05.952Z,58.40
2019-03-21T06:49:26.543Z,52.70
2019-03-21T06:51:47.095Z,51.70
2019-03-21T06:54:07.850Z,54.80
2019-03-21T06:56:28.305Z,53.30
2019-03-21T06:58:48.283Z,48.00
2019-03-21T07:01:08.543Z,44.60
2019-03-21T07:03:28.816Z,42.80
2019-03-21T07:05:49.160Z,41.80
2019-03-21T07:08:09.439Z,40.90
2019-03-21T07:10:29.745Z,39.80
2019-03-21T07:12:49.928Z,39.30
2019-03-21T07:15:12.563Z,38.50
2019-03-21T07:17:32.792Z,37.70
2019-03-21T07:19:52.971Z,36.10
2019-03-21T07:22:13.343Z,35.70
2019-03-21T07:24:33.650Z,35.20
2019-03-21T07:26:54.100Z,34.90
2019-03-21T07:29:14.367Z,34.30
2019-03-21T07:31:36.144Z,33.80
2019-03-21T07:33:56.467Z,33.50
2019-03-21T07:36:16.800Z,33.00
2019-03-21T07:38:37.061Z,32.50
2019-03-21T07:40:57.280Z,34.40
2019-03-21T07:43:17.554Z,33.10
2019-03-21T07:45:37.880Z,34.20
2019-03-21T07:47:58.220Z,32.80
2019-03-21T07:50:18.535Z,31.30
2019-03-21T07:52:47.089Z,32.50
2019-03-21T07:55:08.716Z,31.20
2019-03-21T07:57:29.039Z,30.30
2019-03-21T07:59:49.264Z,32.00
2019-03-21T08:02:09.560Z,32.60
2019-03-21T08:04:30.316Z,31.60
2019-03-21T08:06:50.578Z,32.00
2019-03-21T08:09:10.856Z,33.00
2019-03-21T08:11:31.093Z,31.00
2019-03-21T08:13:51.477Z,33.00
2019-03-21T08:16:11.726Z,32.40
2019-03-21T08:18:31.966Z,33.20
2019-03-21T08:20:59.790Z,32.00
2019-03-21T08:23:18.116Z,32.10
2019-03-21T08:25:38.407Z,31.10
2019-03-21T08:27:59.038Z,29.10
2019-03-21T08:30:25.154Z,28.70
2019-03-21T08:32:45.561Z,28.20
2019-03-21T08:35:07.243Z,27.80
2019-03-21T08:37:27.532Z,28.80
2019-03-21T08:39:48.345Z,28.60
2019-03-21T08:42:08.779Z,28.80
2019-03-21T08:44:29.014Z,29.80
2019-03-21T08:46:49.358Z,30.20
2019-03-21T08:49:09.588Z,29.50
2019-03-21T08:51:29.836Z,30.70
2019-03-21T08:53:50.094Z,31.50
2019-03-21T08:56:10.323Z,31.00
2019-03-21T08:58:30.578Z,31.30
2019-03-21T09:00:50.976Z,32.30
2019-03-21T09:03:11.166Z,32.40
2019-03-21T09:05:32.980Z,31.40
2019-03-21T09:07:55.313Z,30.40
2019-03-21T09:10:15.439Z,29.20
2019-03-21T09:12:35.865Z,29.70
2019-03-21T09:14:56.088Z,31.40
2019-03-21T09:17:17.441Z,32.20
2019-03-21T09:19:37.797Z,33.10
2019-03-21T09:21:58.071Z,31.70
2019-03-21T09:24:18.354Z,30.40
2019-03-21T09:26:38.561Z,29.90
2019-03-21T09:28:58.734Z,30.30
2019-03-21T09:31:19.062Z,30.90
2019-03-21T09:33:39.496Z,32.60
2019-03-21T09:35:59.792Z,31.10
2019-03-21T09:38:20.056Z,30.90
2019-03-21T09:40:40.259Z,31.20
2019-03-21T09:43:02.963Z,31.10
2019-03-21T09:45:22.459Z,32.00
2019-03-21T09:47:42.685Z,32.70
2019-03-21T09:50:03.506Z,32.30
2019-03-21T09:52:23.829Z,32.70
2019-03-21T09:54:44.248Z,32.10
2019-03-21T09:57:04.736Z,32.40
2019-03-21T09:59:24.963Z,32.40
2019-03-21T10:01:45.352Z,31.90
2019-03-21T10:04:05.574Z,31.80
2019-03-21T10:06:25.922Z,30.90
2019-03-21T10:08:46.157Z,30.70
2019-03-21T10:11:06.442Z,30.10
2019-03-21T10:13:26.643Z,30.90
2019-03-21T10:15:47.033Z,29.60
2019-03-21T10:18:07.614Z,29.00
2019-03-21T10:20:29.578Z,29.30
2019-03-21T10:22:49.785Z,28.40
2019-03-21T10:25:10.247Z,28.30
2019-03-21T10:27:30.543Z,28.50
2019-03-21T10:29:51.011Z,28.80
2019-03-21T10:32:14.543Z,28.50
2019-03-21T10:34:33.307Z,28.50
2019-03-21T10:36:53.558Z,29.10
2019-03-21T10:39:13.836Z,29.10
2019-03-21T10:41:34.067Z,28.50
2019-03-21T10:43:54.402Z,26.90
2019-03-21T10:46:16.251Z,27.20
2019-03-21T10:48:36.525Z,29.10
2019-03-21T10:50:59.770Z,29.40
2019-03-21T10:53:20.035Z,29.10
2019-03-21T10:55:40.415Z,28.80
2019-03-21T10:58:00.645Z,27.80
2019-03-21T11:00:21.042Z,28.00
2019-03-21T11:02:42.319Z,28.30
2019-03-21T11:05:05.062Z,28.30
2019-03-21T11:07:24.304Z,27.60
2019-03-21T11:09:44.481Z,28.00
2019-03-21T11:12:04.815Z,28.30
2019-03-21T11:14:25.132Z,27.40
2019-03-21T11:16:45.722Z,28.10
2019-03-21T11:19:05.949Z,28.80
2019-03-21T11:21:26.372Z,27.80
2019-03-21T11:23:46.640Z,27.60
2019-03-21T11:26:07.166Z,27.30
2019-03-21T11:28:27.480Z,27.20
2019-03-21T11:30:47.870Z,27.50
2019-03-21T11:33:08.313Z,27.80
2019-03-21T11:35:28.714Z,27.20
2019-03-21T11:37:49.176Z,27.40
2019-03-21T11:40:09.776Z,27.00
2019-03-21T11:42:30.198Z,27.40
2019-03-21T11:44:50.604Z,26.00
2019-03-21T11:47:10.913Z,27.80
2019-03-21T11:49:31.175Z,27.90
2019-03-21T11:51:51.758Z,27.40
2019-03-21T11:54:12.157Z,28.40
2019-03-21T11:56:32.442Z,26.60
2019-03-21T11:58:53.693Z,27.10
2019-03-21T12:01:14.004Z,26.30
2019-03-21T12:03:34.343Z,26.40
2019-03-21T12:05:54.743Z,26.80
2019-03-21T12:08:14.933Z,26.10
2019-03-21T12:10:35.219Z,26.00
2019-03-21T12:12:55.521Z,26.50
2019-03-21T12:15:15.823Z,26.30
2019-03-21T12:17:36.143Z,26.90
2019-03-21T12:19:56.411Z,26.80
2019-03-21T12:22:17.409Z,26.40
2019-03-21T12:24:38.994Z,25.60
2019-03-21T12:26:59.341Z,24.50
2019-03-21T12:29:19.641Z,24.00
2019-03-21T12:31:40.139Z,24.20
2019-03-21T12:34:06.363Z,24.40
2019-03-21T12:36:26.589Z,23.30
2019-03-21T12:38:46.858Z,23.60
2019-03-21T12:41:07.399Z,23.60
2019-03-21T12:43:27.808Z,23.80
2019-03-21T12:45:48.073Z,22.80
2019-03-21T12:48:08.356Z,22.80
2019-03-21T12:50:28.660Z,22.30
2019-03-21T12:52:50.210Z,22.40
2019-03-21T12:55:10.845Z,23.10
2019-03-21T12:57:31.098Z,23.00
2019-03-21T12:59:51.331Z,23.10
2019-03-21T13:02:11.652Z,23.00
2019-03-21T13:04:32.036Z,23.40
2019-03-21T13:06:52.280Z,23.40
2019-03-21T13:09:12.537Z,24.30
2019-03-21T13:11:32.857Z,25.90
2019-03-21T13:13:53.507Z,25.90
2019-03-21T13:16:15.820Z,25.60
2019-03-21T13:18:35.694Z,25.70
2019-03-21T13:20:55.986Z,24.80
2019-03-21T13:23:16.305Z,25.00
2019-03-21T13:25:36.823Z,25.80
2019-03-21T13:27:57.366Z,26.90
2019-03-21T13:30:18.083Z,24.70
2019-03-21T13:32:38.497Z,26.10
2019-03-21T13:34:59.846Z,25.50
2019-03-21T13:37:21.299Z,24.50
2019-03-21T13:39:41.188Z,24.10
2019-03-21T13:42:01.190Z,24.30
2019-03-21T13:44:21.159Z,24.00
2019-03-21T13:46:41.184Z,23.60
2019-03-21T13:49:01.101Z,24.00
2019-03-21T13:51:21.414Z,25.10
2019-03-21T13:53:41.610Z,25.70
2019-03-21T13:56:01.755Z,25.00
2019-03-21T13:58:21.951Z,24.60
2019-03-21T14:00:42.358Z,24.60
2019-03-21T14:03:02.660Z,25.40
2019-03-21T14:05:22.846Z,24.60
2019-03-21T14:07:43.161Z,24.90
2019-03-21T14:10:04.940Z,25.30
2019-03-21T14:12:25.263Z,25.60
2019-03-21T14:14:45.536Z,25.40
2019-03-21T14:17:05.859Z,25.20
2019-03-21T14:19:26.228Z,24.60
2019-03-21T14:21:47.535Z,25.40
2019-03-21T14:24:07.811Z,25.30
2019-03-21T14:26:28.080Z,25.20
2019-03-21T14:28:48.327Z,25.50
2019-03-21T14:31:08.558Z,26.50
2019-03-21T14:33:28.839Z,25.80
2019-03-21T14:35:49.127Z,27.00
2019-03-21T14:38:09.373Z,26.70
2019-03-21T14:40:29.589Z,25.50
2019-03-21T14:42:49.933Z,26.20
2019-03-21T14:45:16.252Z,26.60
2019-03-21T14:47:36.699Z,27.00
2019-03-21T14:49:57.198Z,26.80
2019-03-21T14:52:17.545Z,27.00
2019-03-21T14:54:37.881Z,27.10
2019-03-21T14:56:58.291Z,27.90
2019-03-21T14:59:18.711Z,29.00
2019-03-21T15:01:40.771Z,29.70
2019-03-21T15:04:00.924Z,30.00
2019-03-21T15:06:22.433Z,30.60
2019-03-21T15:08:42.748Z,31.50
2019-03-21T15:11:03.139Z,31.50
2019-03-21T15:13:23.577Z,31.50
2019-03-21T15:15:43.884Z,30.00
2019-03-21T15:18:04.299Z,30.40
2019-03-21T15:20:24.578Z,30.10
2019-03-21T15:22:46.136Z,30.00
2019-03-21T15:25:10.236Z,29.60
2019-03-21T15:27:30.510Z,29.30
2019-03-21T15:29:50.760Z,29.10
2019-03-21T15:32:11.083Z,28.60
2019-03-21T15:34:31.350Z,27.80
2019-03-21T15:36:51.619Z,28.20
2019-03-21T15:39:11.881Z,28.90
2019-03-21T15:41:32.254Z,31.00
2019-03-21T15:43:52.505Z,32.80
2019-03-21T15:46:12.763Z,33.40
2019-03-21T15:48:33.281Z,33.30
2019-03-21T15:51:03.871Z,33.90
2019-03-21T15:53:15.346Z,34.00
2019-03-21T15:55:35.734Z,33.60
2019-03-21T15:57:56.241Z,34.20
2019-03-21T16:00:19.564Z,34.30
2019-03-21T16:02:39.945Z,34.90
2019-03-21T16:05:03.380Z,35.50
2019-03-21T16:07:23.708Z,35.40
2019-03-21T16:09:44.100Z,35.60
2019-03-21T16:12:06.161Z,35.60
2019-03-21T16:14:25.975Z,35.50
2019-03-21T16:16:46.115Z,35.90
2019-03-21T16:19:06.360Z,35.90
2019-03-21T16:21:26.912Z,36.40
2019-03-21T16:23:46.876Z,36.60
2019-03-21T16:26:06.946Z,36.80
2019-03-21T16:28:27.507Z,37.00
2019-03-21T16:30:47.487Z,37.10
2019-03-21T16:33:07.649Z,37.20
2019-03-21T16:35:28.313Z,37.50
2019-03-21T16:37:48.873Z,37.60
2019-03-21T16:40:14.222Z,37.90
2019-03-21T16:42:37.083Z,38.00
2019-03-21T16:44:57.160Z,38.20
2019-03-21T16:47:17.743Z,38.20
2019-03-21T16:49:38.337Z,38.40
2019-03-21T16:52:01.410Z,38.40
2019-03-21T16:54:21.674Z,38.60
2019-03-21T16:56:41.646Z,38.30
2019-03-21T16:59:02.210Z,38.80
2019-03-21T17:01:22.795Z,38.70
2019-03-21T17:03:42.704Z,38.90
2019-03-21T17:06:02.684Z,38.80
2019-03-21T17:08:23.241Z,39.10
2019-03-21T17:10:43.939Z,39.50
2019-03-21T17:13:04.641Z,39.40
2019-03-21T17:15:25.468Z,40.00
2019-03-21T17:17:45.508Z,40.10
2019-03-21T17:20:07.460Z,40.30
2019-03-21T17:22:28.015Z,40.30
2019-03-21T17:24:48.641Z,40.90
2019-03-21T17:27:09.211Z,41.40
2019-03-21T17:29:29.848Z,42.40
2019-03-21T17:31:50.692Z,43.80
2019-03-21T17:34:11.309Z,45.80
2019-03-21T17:36:31.843Z,46.00
2019-03-21T17:38:52.397Z,47.00
2019-03-21T17:41:12.991Z,48.10
2019-03-21T17:43:33.539Z,48.80
2019-03-21T17:45:54.328Z,49.20
2019-03-21T17:48:14.890Z,49.90
2019-03-21T17:50:35.494Z,50.00
2019-03-21T17:52:56.099Z,50.10
2019-03-21T17:55:22.716Z,50.50
2019-03-21T17:57:43.575Z,51.50
2019-03-21T18:00:09.905Z,51.50
2019-03-21T18:02:30.670Z,52.00
2019-03-21T18:04:51.274Z,52.80
2019-03-21T18:07:12.873Z,53.30
2019-03-21T18:09:33.408Z,53.90
2019-03-21T18:11:54.041Z,54.30
2019-03-21T18:14:14.670Z,54.70
2019-03-21T18:16:35.420Z,54.50
2019-03-21T18:18:56.157Z,54.80
2019-03-21T18:21:16.775Z,55.40
2019-03-21T18:23:42.332Z,55.50
2019-03-21T18:26:02.945Z,56.00
2019-03-21T18:28:23.655Z,56.00
2019-03-21T18:30:44.221Z,56.50
2019-03-21T18:33:04.928Z,56.60
2019-03-21T18:35:25.644Z,57.30
2019-03-21T18:37:46.181Z,57.90
2019-03-21T18:40:09.937Z,58.30
2019-03-21T18:42:30.237Z,58.50
2019-03-21T18:44:50.714Z,58.50
2019-03-21T18:47:11.769Z,58.70
2019-03-21T18:49:32.309Z,58.30
2019-03-21T18:51:52.860Z,58.30
2019-03-21T18:54:13.419Z,58.60
2019-03-21T18:56:34.020Z,59.00
2019-03-21T18:58:54.603Z,59.70
2019-03-21T19:01:16.188Z,60.10
2019-03-21T19:03:37.685Z,60.80
2019-03-21T19:05:58.742Z,61.00
2019-03-21T19:08:19.276Z,61.00
2019-03-21T19:10:39.947Z,61.70
2019-03-21T19:13:00.519Z,61.60
2019-03-21T19:15:21.389Z,61.40
2019-03-21T19:17:42.611Z,61.00
2019-03-21T19:20:04.216Z,61.30
2019-03-21T19:22:24.773Z,62.70
2019-03-21T19:24:45.408Z,63.00
2019-03-21T19:27:05.929Z,63.10
2019-03-21T19:29:26.544Z,63.30
2019-03-21T19:31:47.039Z,63.20
2019-03-21T19:34:07.736Z,63.30
2019-03-21T19:36:28.346Z,63.80
2019-03-21T19:38:48.873Z,64.40
2019-03-21T19:41:09.612Z,64.60
2019-03-21T19:43:30.321Z,65.40
2019-03-21T19:45:51.809Z,65.80
2019-03-21T19:48:12.447Z,65.30
2019-03-21T19:50:32.930Z,65.60
2019-03-21T19:52:53.516Z,65.60
2019-03-21T19:55:14.444Z,65.70
2019-03-21T19:57:36.117Z,66.80
2019-03-21T19:59:56.759Z,66.10
2019-03-21T20:02:17.362Z,66.10
2019-03-21T20:04:38.288Z,66.10
2019-03-21T20:06:58.842Z,66.20
2019-03-21T20:09:19.396Z,66.00
2019-03-21T20:11:39.935Z,66.70
2019-03-21T20:14:00.576Z,66.40
2019-03-21T20:16:21.166Z,66.00
2019-03-21T20:18:41.829Z,66.30
2019-03-21T20:21:02.896Z,67.10
2019-03-21T20:23:25.491Z,67.50
2019-03-21T20:25:46.096Z,67.30
2019-03-21T20:28:07.000Z,67.30
2019-03-21T20:30:27.679Z,67.10
2019-03-21T20:32:48.300Z,67.00
2019-03-21T20:35:10.380Z,67.80
2019-03-21T20:37:30.894Z,68.60
2019-03-21T20:39:52.984Z,69.10
2019-03-21T20:42:13.636Z,69.20
2019-03-21T20:44:34.265Z,69.20
2019-03-21T20:46:54.910Z,70.10
2019-03-21T20:49:15.604Z,70.60
2019-03-21T20:51:36.138Z,70.20
2019-03-21T20:53:56.698Z,69.90
2019-03-21T20:56:17.343Z,70.30
2019-03-21T20:58:39.661Z,70.90
2019-03-21T21:01:00.468Z,71.30
2019-03-21T21:03:21.085Z,71.90
2019-03-21T21:05:43.720Z,72.00
2019-03-21T21:08:04.459Z,71.60
2019-03-21T21:10:25.003Z,71.90
2019-03-21T21:12:45.662Z,72.10
2019-03-21T21:15:08.127Z,72.40
2019-03-21T21:17:32.659Z,72.70
2019-03-21T21:19:53.161Z,72.80
2019-03-21T21:22:13.825Z,72.80
2019-03-21T21:24:35.489Z,73.00
2019-03-21T21:27:01.553Z,73.00
2019-03-21T21:29:22.053Z,73.20
2019-03-21T21:31:43.032Z,73.40
2019-03-21T21:34:05.427Z,73.40
2019-03-21T21:36:25.877Z,73.70
2019-03-21T21:38:46.467Z,73.50
2019-03-21T21:41:07.202Z,73.50
2019-03-21T21:43:27.899Z,73.50
2019-03-21T21:45:48.549Z,74.10
2019-03-21T21:48:09.213Z,75.10
2019-03-21T21:50:29.809Z,74.80
2019-03-21T21:52:50.276Z,75.00
2019-03-21T21:55:11.128Z,74.90
2019-03-21T21:57:34.114Z,75.60
2019-03-21T21:59:56.735Z,75.80
2019-03-21T22:02:20.787Z,76.00
2019-03-21T22:05:04.364Z,76.10
2019-03-21T22:07:27.688Z,76.10
2019-03-21T22:09:55.874Z,76.40
2019-03-21T22:12:25.259Z,76.80
2019-03-21T22:17:36.606Z,77.30
2019-03-21T22:20:06.119Z,77.20
2019-03-21T22:22:26.523Z,77.40
2019-03-21T22:24:47.187Z,78.00
2019-03-21T22:27:07.869Z,78.20
2019-03-21T22:29:28.423Z,78.10
2019-03-21T22:31:49.177Z,79.00
2019-03-21T22:34:09.787Z,77.90
2019-03-21T22:36:31.409Z,78.10
2019-03-21T22:38:52.051Z,78.30
2019-03-21T22:41:12.507Z,78.30
2019-03-21T22:43:33.072Z,78.30
2019-03-21T22:45:54.716Z,78.20
2019-03-21T22:48:15.295Z,78.50
2019-03-21T22:50:35.864Z,78.50
2019-03-21T22:52:56.745Z,79.50
2019-03-21T22:55:17.790Z,78.80
2019-03-21T22:57:39.191Z,78.90
2019-03-21T22:59:59.668Z,79.10
2019-03-21T23:02:20.468Z,79.60
2019-03-21T23:04:41.164Z,79.80
2019-03-21T23:07:11.027Z,79.60
2019-03-21T23:09:26.639Z,80.10
2019-03-21T23:11:47.206Z,80.50
2019-03-21T23:14:09.772Z,80.70
2019-03-21T23:16:30.190Z,80.60
2019-03-21T23:18:50.775Z,80.60
2019-03-21T23:21:14.562Z,80.40
2019-03-21T23:23:35.048Z,80.50
2019-03-21T23:25:55.642Z,80.80
2019-03-21T23:28:16.533Z,80.90
2019-03-21T23:30:37.861Z,81.20
2019-03-21T23:32:58.387Z,81.00
2019-03-21T23:35:20.165Z,80.50
2019-03-21T23:37:40.839Z,81.00
2019-03-21T23:40:01.451Z,81.30
2019-03-21T23:42:23.249Z,81.20
2019-03-21T23:44:43.705Z,81.00
2019-03-21T23:47:05.350Z,80.90
2019-03-21T23:49:26.851Z,81.40
2019-03-21T23:51:47.436Z,81.70
2019-03-21T23:54:08.283Z,82.00
2019-03-21T23:56:28.831Z,82.70
2019-03-21T23:58:49.390Z,82.40
